Time;durP1;ratioP1;P1;durP2;ratioP2;P2;SDS_P1;SDS_P2;PMS_P1;PMS_P2;Temp;Humidity;BMP_temperature;BMP_pressure;BME280_temperature;BME280_humidity;BME280_pressure;Samples;Min_cycle;Max_cycle;Signal;HPM_P1;HPM_P2
2021/10/26 00:00:47;;;;;;;6.50;5.90;;;9.80;99.90;;;;;;459325;256;28480;-78
2021/10/26 00:02:49;;;;;;;6.20;5.60;;;9.80;99.90;;;;;;459236;256;27584;-77
2021/10/26 00:04:50;;;;;;;6.00;5.00;;;9.80;99.90;;;;;;459266;256;28024;-77
2021/10/26 00:06:51;;;;;;;4.80;4.40;;;9.80;99.90;;;;;;459253;256;27929;-78
2021/10/26 00:08:55;;;;;;;5.77;4.73;;;9.80;99.90;;;;;;459256;256;27857;-77
2021/10/26 00:10:54;;;;;;;5.90;5.13;;;9.80;99.90;;;;;;459108;259;28441;-77
2021/10/26 00:12:55;;;;;;;5.27;4.30;;;9.80;99.90;;;;;;459257;256;28402;-77
2021/10/26 00:14:58;;;;;;;4.67;4.27;;;9.80;99.90;;;;;;459255;256;28316;-77
2021/10/26 00:16:58;;;;;;;5.20;4.10;;;9.80;99.90;;;;;;459072;259;28469;-78
2021/10/26 00:18:59;;;;;;;4.03;3.70;;;9.80;99.90;;;;;;459250;256;28609;-77
2021/10/26 00:21:02;;;;;;;4.20;3.80;;;9.80;99.90;;;;;;459220;256;27906;-78
2021/10/26 00:23:03;;;;;;;5.87;4.10;;;9.80;99.90;;;;;;459213;256;27839;-74
2021/10/26 00:25:05;;;;;;;4.63;4.10;;;9.80;99.90;;;;;;459252;256;28070;-77
2021/10/26 00:27:06;;;;;;;4.20;3.80;;;9.80;99.90;;;;;;459235;256;27919;-77
2021/10/26 00:29:07;;;;;;;4.07;3.63;;;9.90;99.90;;;;;;459215;256;28560;-79
2021/10/26 00:31:08;;;;;;;4.57;3.70;;;9.80;99.90;;;;;;459216;251;29145;-78
2021/10/26 00:33:10;;;;;;;4.17;3.60;;;9.80;99.90;;;;;;459253;256;28599;-77
2021/10/26 00:35:12;;;;;;;4.03;3.30;;;9.80;99.90;;;;;;459209;256;28531;-77
2021/10/26 00:37:14;;;;;;;5.70;4.60;;;9.80;99.90;;;;;;459234;256;27736;-78
2021/10/26 00:39:14;;;;;;;5.40;4.33;;;9.80;99.90;;;;;;459206;256;27938;-77
2021/10/26 00:41:17;;;;;;;4.97;4.03;;;9.80;99.90;;;;;;459255;256;27822;-77
2021/10/26 00:43:18;;;;;;;5.90;4.93;;;9.80;99.90;;;;;;459232;256;27952;-78
2021/10/26 00:45:21;;;;;;;4.53;3.60;;;9.80;99.90;;;;;;459227;256;27749;-79
2021/10/26 00:47:22;;;;;;;5.73;4.17;;;9.80;99.90;;;;;;459230;256;27918;-77
2021/10/26 00:49:24;;;;;;;4.60;3.70;;;9.80;99.90;;;;;;459195;256;28027;-79
2021/10/26 00:51:25;;;;;;;6.07;4.60;;;9.80;99.90;;;;;;459280;256;27993;-78
2021/10/26 00:53:27;;;;;;;4.50;3.90;;;9.80;99.90;;;;;;459234;256;28512;-77
2021/10/26 00:55:28;;;;;;;6.20;5.10;;;9.80;99.90;;;;;;459244;256;28002;-77
2021/10/26 00:57:37;;;;;;;5.10;4.33;;;9.80;99.90;;;;;;459224;256;28012;-78
2021/10/26 00:59:38;;;;;;;4.77;4.20;;;9.80;99.90;;;;;;459214;256;27929;-76
2021/10/26 01:01:41;;;;;;;11.60;5.20;;;9.80;99.90;;;;;;459256;256;28067;-80
2021/10/26 01:03:42;;;;;;;4.87;4.27;;;9.80;99.90;;;;;;459240;256;28063;-78
2021/10/26 01:05:44;;;;;;;5.90;4.80;;;9.80;99.90;;;;;;459234;256;28000;-78
2021/10/26 01:07:45;;;;;;;7.37;4.43;;;9.80;99.90;;;;;;459210;256;27928;-78
2021/10/26 01:09:46;;;;;;;4.83;3.97;;;9.80;99.90;;;;;;459247;256;27523;-78
2021/10/26 01:11:47;;;;;;;6.10;3.97;;;9.80;99.90;;;;;;459230;256;27735;-80
2021/10/26 01:13:49;;;;;;;3.97;3.67;;;9.70;99.90;;;;;;459227;256;28044;-78
2021/10/26 01:15:53;;;;;;;4.47;4.07;;;9.70;99.90;;;;;;459244;256;28211;-78
2021/10/26 01:17:52;;;;;;;4.17;3.80;;;9.80;99.90;;;;;;458986;259;27794;-78
2021/10/26 01:19:52;;;;;;;5.10;4.60;;;9.80;99.90;;;;;;459253;256;27881;-77
2021/10/26 01:21:54;;;;;;;5.10;3.67;;;9.80;99.90;;;;;;459268;256;28327;-79
2021/10/26 01:23:55;;;;;;;5.30;4.00;;;9.80;99.90;;;;;;459246;256;27912;-78
2021/10/26 01:25:56;;;;;;;4.10;3.70;;;9.80;99.90;;;;;;459211;256;28551;-78
2021/10/26 01:27:57;;;;;;;4.20;3.50;;;9.80;99.90;;;;;;459230;256;28819;-78
2021/10/26 01:29:59;;;;;;;4.33;3.93;;;9.80;99.90;;;;;;459304;256;28370;-78
2021/10/26 01:32:00;;;;;;;4.63;4.23;;;9.80;99.90;;;;;;459307;256;28553;-79
2021/10/26 01:34:01;;;;;;;4.33;3.93;;;9.90;99.90;;;;;;459313;256;27930;-78
2021/10/26 01:36:02;;;;;;;4.53;3.53;;;9.80;99.90;;;;;;459335;256;27827;-78
2021/10/26 01:38:04;;;;;;;3.80;3.30;;;9.80;99.90;;;;;;459341;256;27888;-77
2021/10/26 01:40:05;;;;;;;4.07;3.70;;;9.80;99.90;;;;;;459314;256;27576;-78
2021/10/26 01:42:06;;;;;;;6.80;4.30;;;9.80;99.90;;;;;;459379;256;27615;-81
2021/10/26 01:44:07;;;;;;;4.40;3.73;;;9.80;99.90;;;;;;459507;256;28075;-78
2021/10/26 01:46:09;;;;;;;4.07;3.73;;;9.80;99.90;;;;;;459501;256;28118;-78
2021/10/26 01:48:11;;;;;;;5.10;4.20;;;9.80;99.90;;;;;;459465;256;27969;-77
2021/10/26 01:50:12;;;;;;;5.60;3.87;;;9.80;99.90;;;;;;459508;256;28069;-80
2021/10/26 01:52:14;;;;;;;5.97;4.10;;;9.80;99.90;;;;;;459543;256;28029;-77
2021/10/26 01:54:21;;;;;;;4.00;3.30;;;9.80;99.90;;;;;;459463;256;28053;-79
2021/10/26 01:56:22;;;;;;;4.87;3.80;;;9.70;99.90;;;;;;459240;256;27985;-79
2021/10/26 01:58:23;;;;;;;5.00;4.10;;;9.80;99.90;;;;;;459259;256;28026;-76
2021/10/26 02:00:26;;;;;;;4.17;3.63;;;9.80;99.90;;;;;;459531;256;28049;-77
2021/10/26 02:02:27;;;;;;;5.80;3.53;;;9.70;99.90;;;;;;459484;256;28089;-77
2021/10/26 02:04:28;;;;;;;4.53;3.80;;;9.70;99.90;;;;;;459505;256;27938;-78
2021/10/26 02:06:29;;;;;;;4.37;3.97;;;9.70;99.90;;;;;;459430;256;28032;-79
2021/10/26 02:08:31;;;;;;;4.07;3.47;;;9.60;99.90;;;;;;459568;256;28596;-77
2021/10/26 02:10:32;;;;;;;4.77;3.60;;;9.60;99.90;;;;;;459671;256;28104;-77
2021/10/26 02:12:33;;;;;;;4.10;3.70;;;9.70;99.90;;;;;;459454;256;28445;-79
2021/10/26 02:14:34;;;;;;;4.77;3.60;;;9.70;99.90;;;;;;459633;256;28132;-78
2021/10/26 02:16:37;;;;;;;5.17;4.17;;;9.70;99.90;;;;;;459565;256;28040;-77
2021/10/26 02:18:38;;;;;;;6.00;4.17;;;9.70;99.90;;;;;;459540;256;27907;-78
2021/10/26 02:20:39;;;;;;;4.70;4.20;;;9.70;99.90;;;;;;459594;256;27976;-78
2021/10/26 02:22:40;;;;;;;3.47;3.17;;;9.70;99.90;;;;;;459531;256;28022;-79
2021/10/26 02:24:49;;;;;;;6.53;3.70;;;9.70;99.90;;;;;;459545;256;27907;-77
2021/10/26 02:26:50;;;;;;;4.27;3.80;;;9.70;99.90;;;;;;459264;256;28017;-76
2021/10/26 02:28:53;;;;;;;4.20;3.80;;;9.70;99.90;;;;;;459502;256;27950;-78
2021/10/26 02:30:54;;;;;;;4.40;4.00;;;9.70;99.90;;;;;;459569;256;28040;-78
2021/10/26 02:32:55;;;;;;;4.17;3.77;;;9.70;99.90;;;;;;459571;256;27937;-77
2021/10/26 02:34:56;;;;;;;4.60;4.10;;;9.70;99.90;;;;;;459458;256;27577;-78
2021/10/26 02:37:07;;;;;;;5.47;4.37;;;9.70;99.90;;;;;;459574;256;28456;-78
2021/10/26 02:39:08;;;;;;;4.97;4.10;;;9.70;99.90;;;;;;459209;256;28248;-76
2021/10/26 02:41:09;;;;;;;5.67;4.50;;;9.80;99.90;;;;;;459511;256;27954;-77
2021/10/26 02:43:12;;;;;;;6.00;4.73;;;9.70;99.90;;;;;;459453;256;27831;-78
2021/10/26 02:45:15;;;;;;;5.10;4.60;;;9.80;99.90;;;;;;459513;256;28183;-80
2021/10/26 02:47:15;;;;;;;4.80;4.30;;;9.70;99.90;;;;;;459453;259;27804;-78
2021/10/26 02:49:16;;;;;;;4.53;4.13;;;9.70;99.90;;;;;;459486;256;27828;-78
2021/10/26 02:51:17;;;;;;;4.63;4.20;;;9.70;99.90;;;;;;459573;256;28270;-77
2021/10/26 02:53:19;;;;;;;4.03;3.73;;;9.80;99.90;;;;;;459538;256;27581;-77
2021/10/26 02:55:20;;;;;;;6.00;4.57;;;9.80;99.90;;;;;;459512;256;28484;-78
2021/10/26 02:57:21;;;;;;;6.27;4.33;;;9.70;99.90;;;;;;459579;256;28531;-77
2021/10/26 02:59:24;;;;;;;4.67;4.13;;;9.70;99.90;;;;;;459520;256;28391;-78
2021/10/26 03:01:24;;;;;;;4.07;3.67;;;9.70;99.90;;;;;;459394;259;27823;-79
2021/10/26 03:03:32;;;;;;;4.60;4.10;;;9.70;99.90;;;;;;459498;256;28160;-77
2021/10/26 03:05:33;;;;;;;4.07;3.77;;;9.70;99.90;;;;;;459221;256;27982;-76
2021/10/26 03:07:34;;;;;;;4.50;3.80;;;9.70;99.90;;;;;;459270;256;27973;-77
2021/10/26 03:09:46;;;;;;;5.43;3.80;;;9.70;99.90;;;;;;459539;258;28023;-78
2021/10/26 03:11:46;;;;;;;3.90;3.60;;;9.70;99.90;;;;;;459424;259;27973;-78
2021/10/26 03:13:47;;;;;;;4.63;3.60;;;9.70;99.90;;;;;;459568;256;28173;-78
2021/10/26 03:15:50;;;;;;;3.83;3.53;;;9.70;99.90;;;;;;459522;256;28083;-78
2021/10/26 03:17:51;;;;;;;4.57;3.53;;;9.70;99.90;;;;;;459196;256;28011;-74
2021/10/26 03:19:53;;;;;;;7.00;4.00;;;9.80;99.90;;;;;;459415;256;27951;-77
2021/10/26 03:21:54;;;;;;;4.33;3.80;;;9.80;99.90;;;;;;459518;256;29311;-78
2021/10/26 03:23:55;;;;;;;3.80;3.50;;;9.80;99.90;;;;;;459385;256;28491;-78
2021/10/26 03:25:56;;;;;;;4.03;3.73;;;9.80;99.90;;;;;;459273;256;28392;-78
2021/10/26 03:28:02;;;;;;;4.33;3.60;;;9.70;99.90;;;;;;459294;256;28466;-78
2021/10/26 03:30:03;;;;;;;3.97;3.60;;;9.70;99.90;;;;;;459193;256;28038;-77
2021/10/26 03:32:04;;;;;;;6.27;4.00;;;9.80;99.90;;;;;;459308;256;27999;-78
2021/10/26 03:34:06;;;;;;;5.17;3.80;;;9.80;99.90;;;;;;459331;256;27895;-78
2021/10/26 03:36:07;;;;;;;5.23;3.60;;;9.70;99.90;;;;;;459329;256;27889;-77
2021/10/26 03:38:08;;;;;;;4.03;3.67;;;9.70;99.90;;;;;;459305;256;28079;-79
2021/10/26 03:40:09;;;;;;;4.53;3.60;;;9.80;99.90;;;;;;459395;256;27953;-78
2021/10/26 03:42:11;;;;;;;3.80;3.50;;;9.80;99.90;;;;;;459492;256;27997;-79
2021/10/26 03:44:21;;;;;;;4.20;3.80;;;9.80;99.90;;;;;;459316;256;27961;-78
2021/10/26 03:46:22;;;;;;;4.00;3.60;;;9.80;99.90;;;;;;459193;256;28205;-75
2021/10/26 03:48:26;;;;;;;4.73;4.20;;;9.80;99.90;;;;;;459410;256;28166;-78
2021/10/26 03:50:26;;;;;;;4.17;3.60;;;9.80;99.90;;;;;;459159;259;27609;-78
2021/10/26 03:54:33;;;;;;;4.47;4.07;;;9.80;99.90;;;;;;459440;256;27907;-76
2021/10/26 03:56:34;;;;;;;4.10;3.40;;;9.70;99.90;;;;;;459448;256;27737;-79
2021/10/26 03:58:40;;;;;;;4.27;3.33;;;9.70;99.90;;;;;;459495;256;28026;-78
2021/10/26 04:00:38;;;;;;;3.87;3.47;;;9.60;99.90;;;;;;458973;259;27936;-77
2021/10/26 04:02:46;;;;;;;4.60;3.40;;;9.60;99.90;;;;;;459429;256;27988;-78
2021/10/26 04:04:46;;;;;;;4.17;3.77;;;9.60;99.90;;;;;;459095;259;27938;-76
2021/10/26 04:06:48;;;;;;;4.40;4.00;;;9.60;99.90;;;;;;459385;256;28047;-79
2021/10/26 04:08:54;;;;;;;5.53;4.00;;;9.60;99.90;;;;;;459470;256;27985;-77
2021/10/26 04:10:54;;;;;;;5.07;4.57;;;9.60;99.90;;;;;;458898;259;28457;-78
2021/10/26 04:12:51;;;;;;;4.80;4.30;;;9.50;99.90;;;;;;459200;256;28185;-79
2021/10/26 04:14:54;;;;;;;5.70;5.10;;;9.60;99.90;;;;;;459482;256;27948;-78
2021/10/26 04:16:55;;;;;;;5.00;4.40;;;9.60;99.90;;;;;;459437;256;27839;-78
2021/10/26 04:18:57;;;;;;;5.00;4.50;;;9.50;99.90;;;;;;459430;256;28079;-78
2021/10/26 04:20:58;;;;;;;4.67;4.00;;;9.50;99.90;;;;;;459399;256;27599;-78
2021/10/26 04:23:01;;;;;;;4.90;4.40;;;9.50;99.90;;;;;;459433;256;28012;-79
2021/10/26 04:25:03;;;;;;;4.67;4.17;;;9.60;99.90;;;;;;459449;256;27818;-79
2021/10/26 04:27:05;;;;;;;4.40;3.93;;;9.50;99.90;;;;;;459456;256;27855;-79
2021/10/26 04:29:06;;;;;;;5.20;3.63;;;9.50;99.90;;;;;;459458;256;27716;-78
2021/10/26 04:31:07;;;;;;;4.50;4.10;;;9.50;99.90;;;;;;459367;256;28030;-78
2021/10/26 04:33:09;;;;;;;5.50;3.70;;;9.60;99.90;;;;;;459414;256;28024;-77
2021/10/26 04:35:12;;;;;;;3.83;3.53;;;9.60;99.90;;;;;;459478;256;28468;-78
2021/10/26 04:37:13;;;;;;;6.00;3.80;;;9.60;99.90;;;;;;459424;256;27947;-78
2021/10/26 04:39:18;;;;;;;4.83;3.30;;;9.60;99.90;;;;;;459431;256;28072;-78
2021/10/26 04:41:19;;;;;;;7.00;4.23;;;9.60;99.90;;;;;;459258;256;27697;-76
2021/10/26 04:43:26;;;;;;;4.60;4.20;;;9.70;99.90;;;;;;459406;256;27771;-77
2021/10/26 04:45:27;;;;;;;6.20;4.67;;;9.70;99.90;;;;;;459216;256;27985;-76
2021/10/26 04:47:29;;;;;;;4.50;4.10;;;9.70;99.90;;;;;;459420;256;27950;-78
2021/10/26 04:49:32;;;;;;;4.20;3.80;;;9.70;99.90;;;;;;459431;256;27996;-78
2021/10/26 04:51:33;;;;;;;5.10;4.00;;;9.70;99.90;;;;;;459225;256;28103;-79
2021/10/26 04:53:34;;;;;;;4.00;3.60;;;9.70;99.90;;;;;;459218;256;27627;-77
2021/10/26 04:55:36;;;;;;;4.47;3.60;;;9.70;99.90;;;;;;459200;256;28087;-78
2021/10/26 04:57:38;;;;;;;3.87;3.47;;;9.70;99.90;;;;;;459473;256;28258;-78
2021/10/26 04:59:38;;;;;;;5.50;3.40;;;9.70;99.90;;;;;;459431;259;28539;-77
2021/10/26 05:01:40;;;;;;;3.73;3.43;;;9.70;99.90;;;;;;459464;259;28024;-78
2021/10/26 05:03:42;;;;;;;7.40;4.17;;;9.70;99.90;;;;;;459546;256;28030;-77
2021/10/26 05:05:43;;;;;;;7.73;3.50;;;9.70;99.90;;;;;;459371;259;28587;-78
2021/10/26 05:07:44;;;;;;;5.60;4.33;;;9.70;99.90;;;;;;459417;256;28058;-78
2021/10/26 05:09:46;;;;;;;4.47;4.07;;;9.70;99.90;;;;;;459357;256;27848;-78
2021/10/26 05:11:47;;;;;;;5.20;4.50;;;9.70;99.90;;;;;;459359;256;28014;-78
2021/10/26 05:13:48;;;;;;;7.83;4.87;;;9.70;99.90;;;;;;459314;256;28537;-77
2021/10/26 05:15:51;;;;;;;6.30;4.40;;;9.80;99.90;;;;;;459394;256;27901;-78
2021/10/26 05:17:51;;;;;;;5.03;4.07;;;9.70;99.90;;;;;;459400;259;28517;-78
2021/10/26 05:19:53;;;;;;;4.80;4.40;;;9.80;99.90;;;;;;459456;256;27871;-78
2021/10/26 05:21:54;;;;;;;7.30;4.60;;;9.70;99.90;;;;;;459306;256;27806;-79
2021/10/26 05:23:54;;;;;;;6.30;4.07;;;9.80;99.90;;;;;;459341;256;28052;-77
2021/10/26 05:26:05;;;;;;;5.70;3.87;;;9.70;99.90;;;;;;459488;256;28398;-78
2021/10/26 05:28:06;;;;;;;5.70;4.67;;;9.80;99.90;;;;;;459250;256;28009;-76
2021/10/26 05:30:09;;;;;;;6.47;4.47;;;9.70;99.90;;;;;;459452;256;28027;-77
2021/10/26 05:32:11;;;;;;;5.10;4.60;;;9.80;99.90;;;;;;459229;256;27989;-76
2021/10/26 05:34:12;;;;;;;5.93;4.43;;;9.80;99.90;;;;;;459433;256;28053;-78
2021/10/26 05:36:13;;;;;;;4.80;4.40;;;9.70;99.90;;;;;;459416;256;28014;-79
2021/10/26 05:38:15;;;;;;;4.90;4.30;;;9.80;99.90;;;;;;459462;256;28062;-79
2021/10/26 05:40:16;;;;;;;6.90;4.37;;;9.70;99.90;;;;;;459396;256;28408;-78
2021/10/26 05:42:17;;;;;;;5.47;4.57;;;9.70;99.90;;;;;;459441;256;27969;-79
2021/10/26 05:44:18;;;;;;;4.40;4.00;;;9.70;99.90;;;;;;459444;256;28462;-78
2021/10/26 05:46:20;;;;;;;5.13;3.47;;;9.70;99.90;;;;;;459426;256;28043;-77
2021/10/26 05:48:38;;;;;;;4.70;4.27;;;9.70;99.90;;;;;;459326;256;28255;-77
2021/10/26 05:50:40;;;;;;;6.93;4.30;;;9.70;99.90;;;;;;459248;256;27826;-76
2021/10/26 05:52:42;;;;;;;4.57;3.80;;;9.70;99.90;;;;;;459355;256;28007;-78
2021/10/26 05:54:43;;;;;;;5.03;3.73;;;9.70;99.90;;;;;;459385;256;27862;-77
2021/10/26 05:56:45;;;;;;;4.00;3.60;;;9.70;99.90;;;;;;459394;256;27979;-78
2021/10/26 05:58:47;;;;;;;4.90;4.13;;;9.70;99.90;;;;;;459353;256;27975;-78
2021/10/26 06:00:48;;;;;;;5.47;4.70;;;9.70;99.90;;;;;;459399;256;28146;-77
2021/10/26 06:02:49;;;;;;;4.67;3.80;;;9.80;99.90;;;;;;459418;256;28006;-77
2021/10/26 06:04:50;;;;;;;4.87;4.47;;;9.70;99.90;;;;;;459427;256;28400;-78
2021/10/26 06:06:52;;;;;;;4.47;3.80;;;9.70;99.90;;;;;;459479;256;28046;-77
2021/10/26 06:08:53;;;;;;;5.07;4.57;;;9.70;99.90;;;;;;459374;256;28542;-78
2021/10/26 06:11:02;;;;;;;4.90;4.50;;;9.70;99.90;;;;;;459398;256;28148;-78
2021/10/26 06:13:05;;;;;;;5.23;4.67;;;9.70;99.90;;;;;;458856;259;27965;-77
2021/10/26 06:15:00;;;;;;;5.30;4.80;;;9.70;99.90;;;;;;458914;259;27913;-76
2021/10/26 06:17:01;;;;;;;5.90;4.90;;;9.70;99.90;;;;;;459399;256;28009;-78
2021/10/26 06:19:02;;;;;;;5.10;4.60;;;9.80;99.90;;;;;;459365;256;28413;-78
2021/10/26 06:21:04;;;;;;;6.77;5.73;;;9.80;99.90;;;;;;459325;256;27901;-77
2021/10/26 06:23:05;;;;;;;9.33;5.53;;;9.80;99.90;;;;;;459217;256;28072;-77
2021/10/26 06:25:06;;;;;;;6.80;5.93;;;9.80;99.90;;;;;;459170;256;27845;-76
2021/10/26 06:27:07;;;;;;;5.93;5.10;;;9.80;99.90;;;;;;459199;256;27993;-77
2021/10/26 06:29:09;;;;;;;5.90;5.20;;;9.80;99.90;;;;;;459180;256;27580;-76
2021/10/26 06:31:10;;;;;;;5.23;4.70;;;9.80;99.90;;;;;;459184;256;28032;-77
2021/10/26 06:33:11;;;;;;;5.83;5.23;;;9.80;99.90;;;;;;459146;256;28095;-77
2021/10/26 06:35:12;;;;;;;5.27;4.77;;;9.90;99.90;;;;;;459165;256;28067;-77
2021/10/26 06:37:14;;;;;;;5.80;4.97;;;9.90;99.90;;;;;;457293;256;28182;-77
2021/10/26 06:39:18;;;;;;;6.23;4.97;;;9.90;99.90;;;;;;456001;253;28073;-77
2021/10/26 06:41:16;;;;;;;6.40;5.60;;;9.90;99.90;;;;;;456042;260;28082;-77
2021/10/26 06:43:18;;;;;;;7.17;6.33;;;9.90;99.90;;;;;;456461;259;29109;-77
2021/10/26 06:45:19;;;;;;;6.20;5.60;;;9.90;99.90;;;;;;456399;259;28537;-77
2021/10/26 06:47:20;;;;;;;8.60;6.43;;;9.90;99.90;;;;;;454934;259;28561;-78
2021/10/26 06:49:21;;;;;;;6.00;5.47;;;9.90;99.90;;;;;;454747;260;28679;-77
2021/10/26 06:51:22;;;;;;;7.30;6.60;;;9.90;99.90;;;;;;454688;260;28004;-77
2021/10/26 06:53:25;;;;;;;7.70;6.43;;;9.90;99.90;;;;;;454739;260;27958;-77
2021/10/26 06:55:25;;;;;;;7.83;6.43;;;9.90;99.90;;;;;;454690;260;28019;-77
2021/10/26 06:57:27;;;;;;;7.33;6.63;;;9.90;99.90;;;;;;454634;260;28192;-76
2021/10/26 06:59:27;;;;;;;6.47;5.87;;;9.90;99.90;;;;;;454679;260;27992;-77
2021/10/26 07:01:29;;;;;;;6.90;6.20;;;9.90;99.90;;;;;;454757;260;27970;-77
2021/10/26 07:03:30;;;;;;;7.40;6.70;;;10.00;99.90;;;;;;454673;260;28144;-77
2021/10/26 07:05:32;;;;;;;8.40;6.27;;;10.00;99.90;;;;;;454702;260;27842;-76
2021/10/26 07:07:32;;;;;;;6.97;6.27;;;10.00;99.90;;;;;;454633;260;28065;-77
2021/10/26 07:09:34;;;;;;;5.97;5.23;;;9.90;99.90;;;;;;454756;260;28061;-77
2021/10/26 07:11:35;;;;;;;7.10;5.83;;;9.90;99.90;;;;;;454735;260;28301;-77
2021/10/26 07:13:38;;;;;;;6.40;5.80;;;9.90;99.90;;;;;;454645;260;28041;-77
2021/10/26 07:15:38;;;;;;;5.93;5.27;;;10.00;99.90;;;;;;454531;261;28502;-76
2021/10/26 07:17:39;;;;;;;5.83;5.33;;;10.00;99.90;;;;;;454734;260;27973;-77
2021/10/26 07:19:40;;;;;;;9.10;5.33;;;10.00;99.90;;;;;;454667;260;28212;-77
2021/10/26 07:21:42;;;;;;;5.97;5.47;;;9.90;99.90;;;;;;454714;260;28161;-77
2021/10/26 07:23:43;;;;;;;6.77;5.17;;;10.00;99.90;;;;;;454637;260;28358;-77
2021/10/26 07:25:44;;;;;;;8.23;5.90;;;10.00;99.90;;;;;;454770;260;28405;-77
2021/10/26 07:27:47;;;;;;;5.70;4.90;;;10.00;99.90;;;;;;454756;260;28555;-77
2021/10/26 07:29:46;;;;;;;6.00;5.10;;;10.00;99.90;;;;;;454538;261;28017;-77
2021/10/26 07:31:48;;;;;;;6.27;5.70;;;10.00;99.90;;;;;;454764;260;27660;-77
2021/10/26 07:33:49;;;;;;;6.53;5.23;;;10.00;99.90;;;;;;454711;260;28163;-78
2021/10/26 07:35:52;;;;;;;8.90;5.53;;;10.00;99.90;;;;;;454708;260;28020;-77
2021/10/26 07:37:51;;;;;;;6.47;5.87;;;10.00;99.90;;;;;;454578;261;28145;-77
2021/10/26 07:39:53;;;;;;;8.80;6.20;;;10.00;99.90;;;;;;454716;260;27722;-77
2021/10/26 07:41:56;;;;;;;6.30;5.70;;;10.00;99.90;;;;;;454719;260;27838;-77
2021/10/26 07:43:55;;;;;;;6.93;5.90;;;10.00;99.90;;;;;;454628;260;27715;-77
2021/10/26 07:45:56;;;;;;;5.80;5.30;;;10.00;99.90;;;;;;454753;260;28035;-77
2021/10/26 07:47:58;;;;;;;5.60;5.10;;;10.10;99.90;;;;;;454733;260;28323;-77
2021/10/26 07:49:59;;;;;;;9.03;6.00;;;10.10;99.90;;;;;;454744;260;28502;-77
2021/10/26 07:52:01;;;;;;;5.67;5.17;;;10.10;99.90;;;;;;454695;260;28490;-77
2021/10/26 07:54:01;;;;;;;5.93;5.43;;;10.10;99.90;;;;;;454769;260;27612;-77
2021/10/26 07:56:05;;;;;;;7.57;5.87;;;10.20;99.90;;;;;;454838;260;27948;-77
2021/10/26 07:58:04;;;;;;;5.33;4.83;;;10.30;99.90;;;;;;454600;261;27948;-77
2021/10/26 08:00:05;;;;;;;5.07;4.63;;;10.30;99.90;;;;;;454748;260;28176;-77
2021/10/26 08:02:07;;;;;;;5.70;5.07;;;10.30;99.90;;;;;;454721;260;28003;-77
2021/10/26 08:04:08;;;;;;;6.60;5.53;;;10.40;99.90;;;;;;454706;260;27710;-77
2021/10/26 08:06:09;;;;;;;5.83;5.27;;;10.40;99.90;;;;;;454742;260;27893;-76
2021/10/26 08:08:11;;;;;;;8.37;5.50;;;10.50;99.90;;;;;;454688;260;27846;-76
2021/10/26 08:10:11;;;;;;;7.57;5.27;;;10.50;99.90;;;;;;454746;260;27841;-77
2021/10/26 08:12:13;;;;;;;5.53;4.90;;;10.50;99.90;;;;;;454850;260;28011;-77
2021/10/26 08:14:14;;;;;;;5.43;4.93;;;10.60;99.90;;;;;;454675;260;27899;-77
2021/10/26 08:16:15;;;;;;;5.30;4.80;;;10.60;99.90;;;;;;454755;260;28459;-77
2021/10/26 08:18:17;;;;;;;5.30;4.80;;;10.60;99.90;;;;;;454736;260;29351;-77
2021/10/26 08:20:18;;;;;;;5.30;4.80;;;10.70;99.90;;;;;;454727;260;28444;-77
2021/10/26 08:22:19;;;;;;;5.50;5.00;;;10.70;99.90;;;;;;454774;260;27971;-77
2021/10/26 08:24:22;;;;;;;5.37;4.87;;;10.70;99.90;;;;;;454735;260;27721;-77
2021/10/26 08:26:25;;;;;;;4.90;4.40;;;10.70;99.90;;;;;;454653;256;27880;-77
2021/10/26 08:28:23;;;;;;;4.47;4.07;;;10.70;99.90;;;;;;454451;261;27867;-77
2021/10/26 08:30:40;;;;;;;4.97;4.33;;;10.70;99.90;;;;;;454687;260;28062;-77
2021/10/26 08:34:53;;;;;;;5.87;4.30;;;10.80;99.90;;;;;;455092;253;28528;-76
2021/10/26 08:36:52;;;;;;;4.10;3.80;;;10.80;99.90;;;;;;457985;254;28461;-77
2021/10/26 08:38:53;;;;;;;3.80;3.50;;;10.80;99.90;;;;;;454831;260;28332;-76
2021/10/26 08:40:54;;;;;;;4.13;3.73;;;10.90;99.90;;;;;;454822;260;28025;-77
2021/10/26 08:42:57;;;;;;;5.27;3.80;;;10.90;99.90;;;;;;454800;260;28213;-76
2021/10/26 08:44:57;;;;;;;3.73;3.43;;;11.00;99.90;;;;;;454712;261;28088;-77
2021/10/26 08:46:58;;;;;;;4.83;3.53;;;10.90;99.90;;;;;;454808;260;27726;-77
2021/10/26 08:48:59;;;;;;;3.90;3.60;;;11.00;99.90;;;;;;454525;260;27780;-77
2021/10/26 08:51:02;;;;;;;3.87;3.47;;;11.00;99.90;;;;;;455583;256;28015;-77
2021/10/26 08:53:02;;;;;;;3.30;3.10;;;11.10;99.90;;;;;;451592;256;27856;-77
2021/10/26 08:55:04;;;;;;;4.77;3.67;;;11.10;99.90;;;;;;451366;259;28590;-77
2021/10/26 08:57:05;;;;;;;4.00;3.70;;;11.10;99.90;;;;;;451175;258;28467;-77
2021/10/26 08:59:06;;;;;;;4.37;3.97;;;11.00;99.90;;;;;;451382;263;28226;-76
2021/10/26 09:01:07;;;;;;;4.07;3.77;;;10.80;99.90;;;;;;451386;263;27879;-76
2021/10/26 09:03:08;;;;;;;5.43;3.30;;;10.80;99.90;;;;;;451405;262;28144;-76
2021/10/26 09:05:09;;;;;;;3.80;3.50;;;10.90;99.90;;;;;;451382;263;29273;-76
2021/10/26 09:07:11;;;;;;;3.77;3.40;;;11.00;99.90;;;;;;451327;263;28097;-76
2021/10/26 09:09:13;;;;;;;4.03;3.30;;;11.10;99.90;;;;;;451351;263;28105;-77
2021/10/26 09:11:21;;;;;;;4.50;3.60;;;;;;;;;;451410;263;28293;-76
2021/10/26 09:17:54;;;;;;;3.73;3.33;;;11.50;99.90;;;;;;449624;262;28553;-75
2021/10/26 09:19:56;;;;;;;4.70;4.07;;;11.50;99.90;;;;;;451301;263;28703;-77
2021/10/26 09:21:57;;;;;;;4.00;3.70;;;11.50;99.90;;;;;;451331;263;28242;-77
2021/10/26 09:23:58;;;;;;;4.37;3.97;;;11.40;99.90;;;;;;451349;263;28160;-76
2021/10/26 09:25:59;;;;;;;11.07;4.37;;;11.40;99.90;;;;;;451391;263;28109;-76
2021/10/26 09:28:02;;;;;;;4.10;3.60;;;;;;;;;;451231;263;28355;-77
2021/10/26 09:30:03;;;;;;;4.17;3.77;;;11.40;99.90;;;;;;451355;263;27630;-76
2021/10/26 09:32:04;;;;;;;4.77;3.73;;;11.40;99.90;;;;;;451422;263;28162;-77
2021/10/26 09:34:06;;;;;;;8.80;4.40;;;11.50;99.90;;;;;;451237;263;28367;-77
2021/10/26 09:36:07;;;;;;;6.30;3.87;;;11.50;99.90;;;;;;451267;263;28293;-77
2021/10/26 09:38:08;;;;;;;4.00;3.70;;;11.60;99.90;;;;;;451346;263;28284;-77
2021/10/26 09:40:09;;;;;;;4.83;3.80;;;11.80;99.90;;;;;;451218;263;28311;-77
2021/10/26 09:42:11;;;;;;;6.47;4.00;;;11.90;99.90;;;;;;451269;259;28157;-77
2021/10/26 09:44:12;;;;;;;3.83;3.53;;;11.90;99.90;;;;;;451269;263;28433;-77
2021/10/26 09:46:13;;;;;;;4.00;3.70;;;11.80;99.90;;;;;;451217;263;28636;-78
2021/10/26 09:48:19;;;;;;;6.70;3.90;;;11.80;99.90;;;;;;451284;263;29177;-77
2021/10/26 09:50:16;;;;;;;4.47;4.07;;;11.80;99.90;;;;;;450882;263;28953;-77
2021/10/26 09:52:18;;;;;;;4.30;3.90;;;11.90;99.90;;;;;;451278;263;28876;-77
2021/10/26 09:54:18;;;;;;;4.97;4.10;;;11.90;99.90;;;;;;451354;263;28908;-77
2021/10/26 09:56:19;;;;;;;5.10;4.47;;;11.80;99.90;;;;;;451299;263;28379;-77
2021/10/26 09:58:21;;;;;;;5.03;4.50;;;11.90;99.90;;;;;;451376;263;28374;-77
2021/10/26 10:00:24;;;;;;;7.37;5.70;;;11.90;99.90;;;;;;451284;263;28545;-76
2021/10/26 10:02:24;;;;;;;4.90;4.40;;;11.80;99.90;;;;;;451149;263;28507;-77
2021/10/26 10:04:24;;;;;;;4.57;4.17;;;11.80;99.90;;;;;;451381;258;28369;-77
2021/10/26 10:06:26;;;;;;;5.20;4.70;;;11.80;99.90;;;;;;451292;263;28404;-78
2021/10/26 10:08:28;;;;;;;5.17;4.10;;;11.80;99.90;;;;;;451308;263;28562;-77
2021/10/26 10:10:28;;;;;;;4.77;4.37;;;11.70;99.90;;;;;;451277;263;28254;-77
2021/10/26 10:12:29;;;;;;;5.57;3.97;;;11.70;99.90;;;;;;451236;263;28498;-77
2021/10/26 10:14:31;;;;;;;4.07;3.70;;;11.70;99.90;;;;;;451263;263;28905;-77
2021/10/26 10:16:32;;;;;;;4.33;3.77;;;11.70;99.90;;;;;;451343;263;28787;-77
2021/10/26 10:18:33;;;;;;;4.20;3.90;;;11.80;99.90;;;;;;451330;263;28802;-77
2021/10/26 10:20:36;;;;;;;4.40;4.00;;;;;;;;;;451338;262;28453;-77
2021/10/26 10:22:38;;;;;;;5.00;3.90;;;11.90;99.90;;;;;;451278;263;27095;-77
2021/10/26 10:24:38;;;;;;;5.37;4.27;;;11.90;99.90;;;;;;451246;263;28708;-77
2021/10/26 10:26:39;;;;;;;4.77;4.37;;;11.80;99.90;;;;;;451230;263;29058;-77
2021/10/26 10:28:44;;;;;;;4.70;4.30;;;11.80;99.90;;;;;;451266;263;28659;-77
2021/10/26 10:30:42;;;;;;;6.10;4.43;;;11.80;99.90;;;;;;451096;263;28841;-77
2021/10/26 10:32:43;;;;;;;3.87;3.57;;;11.80;99.90;;;;;;451430;263;28367;-77
2021/10/26 10:34:44;;;;;;;4.50;4.10;;;11.70;99.90;;;;;;451387;263;28902;-77
2021/10/26 10:36:46;;;;;;;7.10;4.77;;;11.70;99.90;;;;;;451440;263;28251;-76
2021/10/26 10:38:47;;;;;;;5.73;4.20;;;11.70;99.90;;;;;;451368;263;28260;-77
2021/10/26 10:40:48;;;;;;;6.10;4.80;;;11.70;99.90;;;;;;451234;263;28294;-76
2021/10/26 10:42:51;;;;;;;4.63;4.10;;;11.70;99.90;;;;;;451333;263;28619;-77
2021/10/26 10:44:51;;;;;;;4.67;3.77;;;11.60;99.90;;;;;;451308;262;28243;-76
2021/10/26 10:46:53;;;;;;;4.33;3.93;;;11.50;99.90;;;;;;451322;258;28312;-76
2021/10/26 10:48:53;;;;;;;4.60;4.20;;;11.50;99.90;;;;;;451228;263;28299;-76